sensor_id;sensor_type;location;lat;lon;timestamp;temperature;humidity
26081;DHT22;13991;51.174;4.438;2023-01-28T00:00:09;6.10;99.90
26081;DHT22;13991;51.174;4.438;2023-01-28T00:02:35;6.10;99.90
26081;DHT22;13991;51.174;4.438;2023-01-28T00:05:01;6.10;99.90
26081;DHT22;13991;51.174;4.438;2023-01-28T00:07:28;6.10;99.90
26081;DHT22;13991;51.174;4.438;2023-01-28T00:09:54;6.10;99.90
26081;DHT22;13991;51.174;4.438;2023-01-28T00:12:21;6.10;99.90
26081;DHT22;13991;51.174;4.438;2023-01-28T00:14:47;6.10;99.90
26081;DHT22;13991;51.174;4.438;2023-01-28T00:17:16;6.10;99.90
26081;DHT22;13991;51.174;4.438;2023-01-28T00:19:46;6.10;99.90
26081;DHT22;13991;51.174;4.438;2023-01-28T00:22:12;6.10;99.90
26081;DHT22;13991;51.174;4.438;2023-01-28T00:24:38;6.20;99.90
26081;DHT22;13991;51.174;4.438;2023-01-28T00:27:05;6.10;99.90
26081;DHT22;13991;51.174;4.438;2023-01-28T00:29:31;6.00;99.90
26081;DHT22;13991;51.174;4.438;2023-01-28T00:32:00;6.00;99.90
26081;DHT22;13991;51.174;4.438;2023-01-28T00:34:26;6.10;99.90
26081;DHT22;13991;51.174;4.438;2023-01-28T00:36:52;6.20;99.90
26081;DHT22;13991;51.174;4.438;2023-01-28T00:39:25;6.20;99.90
26081;DHT22;13991;51.174;4.438;2023-01-28T00:41:53;6.20;99.90
26081;DHT22;13991;51.174;4.438;2023-01-28T00:44:19;6.10;99.90
26081;DHT22;13991;51.174;4.438;2023-01-28T00:46:46;6.30;99.90
26081;DHT22;13991;51.174;4.438;2023-01-28T00:49:12;6.10;99.90
26081;DHT22;13991;51.174;4.438;2023-01-28T00:51:39;6.00;99.90
26081;DHT22;13991;51.174;4.438;2023-01-28T00:54:05;6.00;99.90
26081;DHT22;13991;51.174;4.438;2023-01-28T00:56:31;6.00;99.90
26081;DHT22;13991;51.174;4.438;2023-01-28T00:58:58;6.00;99.90
26081;DHT22;13991;51.174;4.438;2023-01-28T01:01:26;6.00;99.90
26081;DHT22;13991;51.174;4.438;2023-01-28T01:03:53;6.00;99.90
26081;DHT22;13991;51.174;4.438;2023-01-28T01:06:38;6.00;99.90
26081;DHT22;13991;51.174;4.438;2023-01-28T01:09:07;6.00;99.90
26081;DHT22;13991;51.174;4.438;2023-01-28T01:11:34;6.00;99.90
26081;DHT22;13991;51.174;4.438;2023-01-28T01:14:00;6.10;99.90
26081;DHT22;13991;51.174;4.438;2023-01-28T01:16:30;6.10;99.90
26081;DHT22;13991;51.174;4.438;2023-01-28T01:18:58;6.10;99.90
26081;DHT22;13991;51.174;4.438;2023-01-28T01:21:26;6.30;99.90
26081;DHT22;13991;51.174;4.438;2023-01-28T01:23:53;6.20;99.90
26081;DHT22;13991;51.174;4.438;2023-01-28T01:26:19;6.00;99.90
26081;DHT22;13991;51.174;4.438;2023-01-28T01:28:46;6.10;99.90
26081;DHT22;13991;51.174;4.438;2023-01-28T01:31:18;6.10;99.90
26081;DHT22;13991;51.174;4.438;2023-01-28T01:33:49;6.10;99.90
26081;DHT22;13991;51.174;4.438;2023-01-28T01:36:16;6.10;99.90
26081;DHT22;13991;51.174;4.438;2023-01-28T01:38:44;6.10;99.90
26081;DHT22;13991;51.174;4.438;2023-01-28T01:41:27;5.90;99.90
26081;DHT22;13991;51.174;4.438;2023-01-28T01:44:03;5.90;99.90
26081;DHT22;13991;51.174;4.438;2023-01-28T01:46:50;6.00;99.90
26081;DHT22;13991;51.174;4.438;2023-01-28T01:49:27;6.00;99.90
26081;DHT22;13991;51.174;4.438;2023-01-28T01:52:02;5.90;99.90
26081;DHT22;13991;51.174;4.438;2023-01-28T01:54:32;6.00;99.90
26081;DHT22;13991;51.174;4.438;2023-01-28T01:56:59;6.10;99.90
26081;DHT22;13991;51.174;4.438;2023-01-28T01:59:28;6.20;99.90
26081;DHT22;13991;51.174;4.438;2023-01-28T02:01:57;6.10;99.90
26081;DHT22;13991;51.174;4.438;2023-01-28T02:04:32;6.10;99.90
26081;DHT22;13991;51.174;4.438;2023-01-28T02:07:00;6.20;99.90
26081;DHT22;13991;51.174;4.438;2023-01-28T02:09:32;6.10;99.90
26081;DHT22;13991;51.174;4.438;2023-01-28T02:12:10;6.20;99.90
26081;DHT22;13991;51.174;4.438;2023-01-28T02:14:47;6.20;99.90
26081;DHT22;13991;51.174;4.438;2023-01-28T02:17:16;6.20;99.90
26081;DHT22;13991;51.174;4.438;2023-01-28T02:22:45;6.00;99.90
26081;DHT22;13991;51.174;4.438;2023-01-28T02:31:03;6.00;99.90
26081;DHT22;13991;51.174;4.438;2023-01-28T02:36:52;6.00;99.90
26081;DHT22;13991;51.174;4.438;2023-01-28T02:39:34;6.00;99.90
26081;DHT22;13991;51.174;4.438;2023-01-28T02:42:10;5.80;99.90
26081;DHT22;13991;51.174;4.438;2023-01-28T02:44:39;5.90;99.90
26081;DHT22;13991;51.174;4.438;2023-01-28T02:47:15;5.90;99.90
26081;DHT22;13991;51.174;4.438;2023-01-28T02:50:09;5.80;99.90
26081;DHT22;13991;51.174;4.438;2023-01-28T02:52:56;5.90;99.90
26081;DHT22;13991;51.174;4.438;2023-01-28T02:56:01;5.90;99.90
26081;DHT22;13991;51.174;4.438;2023-01-28T02:58:56;5.70;99.90
26081;DHT22;13991;51.174;4.438;2023-01-28T03:01:27;5.60;99.90
26081;DHT22;13991;51.174;4.438;2023-01-28T03:06:38;5.50;99.90
26081;DHT22;13991;51.174;4.438;2023-01-28T03:09:10;5.50;99.90
26081;DHT22;13991;51.174;4.438;2023-01-28T03:21:39;5.50;99.90
26081;DHT22;13991;51.174;4.438;2023-01-28T03:24:43;5.50;99.90
26081;DHT22;13991;51.174;4.438;2023-01-28T03:27:39;5.60;99.90
26081;DHT22;13991;51.174;4.438;2023-01-28T03:30:45;5.60;99.90
26081;DHT22;13991;51.174;4.438;2023-01-28T03:33:32;5.70;99.90
26081;DHT22;13991;51.174;4.438;2023-01-28T03:36:21;5.80;99.90
26081;DHT22;13991;51.174;4.438;2023-01-28T03:39:06;5.50;99.90
26081;DHT22;13991;51.174;4.438;2023-01-28T03:41:32;5.50;99.90
26081;DHT22;13991;51.174;4.438;2023-01-28T03:43:59;5.60;99.90
26081;DHT22;13991;51.174;4.438;2023-01-28T03:46:43;5.50;99.90
26081;DHT22;13991;51.174;4.438;2023-01-28T03:49:10;5.50;99.90
26081;DHT22;13991;51.174;4.438;2023-01-28T03:51:36;5.40;99.90
26081;DHT22;13991;51.174;4.438;2023-01-28T03:54:03;5.40;99.90
26081;DHT22;13991;51.174;4.438;2023-01-28T03:56:29;5.60;99.90
26081;DHT22;13991;51.174;4.438;2023-01-28T03:59:03;5.70;99.90
26081;DHT22;13991;51.174;4.438;2023-01-28T04:01:29;5.60;99.90
26081;DHT22;13991;51.174;4.438;2023-01-28T04:03:55;5.60;99.90
26081;DHT22;13991;51.174;4.438;2023-01-28T04:06:22;5.60;99.90
26081;DHT22;13991;51.174;4.438;2023-01-28T04:08:48;5.50;99.90
26081;DHT22;13991;51.174;4.438;2023-01-28T04:11:18;5.60;99.90
26081;DHT22;13991;51.174;4.438;2023-01-28T04:13:47;5.60;99.90
26081;DHT22;13991;51.174;4.438;2023-01-28T04:16:15;5.60;99.90
26081;DHT22;13991;51.174;4.438;2023-01-28T04:18:42;5.60;99.90
26081;DHT22;13991;51.174;4.438;2023-01-28T04:21:09;5.40;99.90
26081;DHT22;13991;51.174;4.438;2023-01-28T04:23:38;5.40;99.90
26081;DHT22;13991;51.174;4.438;2023-01-28T04:26:05;5.40;99.90
26081;DHT22;13991;51.174;4.438;2023-01-28T04:28:31;5.40;99.90
26081;DHT22;13991;51.174;4.438;2023-01-28T04:30:58;5.40;99.90
26081;DHT22;13991;51.174;4.438;2023-01-28T04:33:24;5.50;99.90
26081;DHT22;13991;51.174;4.438;2023-01-28T04:35:50;5.50;99.90
26081;DHT22;13991;51.174;4.438;2023-01-28T04:38:17;5.60;99.90
26081;DHT22;13991;51.174;4.438;2023-01-28T04:40:43;5.60;99.90
26081;DHT22;13991;51.174;4.438;2023-01-28T04:43:09;5.70;99.90
26081;DHT22;13991;51.174;4.438;2023-01-28T04:45:36;5.70;99.90
26081;DHT22;13991;51.174;4.438;2023-01-28T04:48:02;5.60;99.90
26081;DHT22;13991;51.174;4.438;2023-01-28T04:50:28;5.60;99.90
26081;DHT22;13991;51.174;4.438;2023-01-28T04:52:55;5.60;99.90
26081;DHT22;13991;51.174;4.438;2023-01-28T04:55:21;5.60;99.90
26081;DHT22;13991;51.174;4.438;2023-01-28T04:57:47;5.70;99.90
26081;DHT22;13991;51.174;4.438;2023-01-28T05:00:14;5.60;99.90
26081;DHT22;13991;51.174;4.438;2023-01-28T05:02:40;5.70;99.90
26081;DHT22;13991;51.174;4.438;2023-01-28T05:05:07;5.50;99.90
26081;DHT22;13991;51.174;4.438;2023-01-28T05:07:37;5.50;99.90
26081;DHT22;13991;51.174;4.438;2023-01-28T05:10:03;5.50;99.90
26081;DHT22;13991;51.174;4.438;2023-01-28T05:12:30;5.50;99.90
26081;DHT22;13991;51.174;4.438;2023-01-28T05:14:58;5.50;99.90
26081;DHT22;13991;51.174;4.438;2023-01-28T05:17:26;5.50;99.90
26081;DHT22;13991;51.174;4.438;2023-01-28T05:19:52;5.50;99.90
26081;DHT22;13991;51.174;4.438;2023-01-28T05:22:19;5.50;99.90
26081;DHT22;13991;51.174;4.438;2023-01-28T05:24:45;5.40;99.90
26081;DHT22;13991;51.174;4.438;2023-01-28T05:27:12;5.30;99.90
26081;DHT22;13991;51.174;4.438;2023-01-28T05:29:38;5.30;99.90
26081;DHT22;13991;51.174;4.438;2023-01-28T05:32:04;5.20;99.90
26081;DHT22;13991;51.174;4.438;2023-01-28T05:34:31;5.40;99.90
26081;DHT22;13991;51.174;4.438;2023-01-28T05:36:57;5.40;99.90
26081;DHT22;13991;51.174;4.438;2023-01-28T05:39:24;5.40;99.90
26081;DHT22;13991;51.174;4.438;2023-01-28T05:41:50;5.50;99.90
26081;DHT22;13991;51.174;4.438;2023-01-28T05:44:17;5.50;99.90
26081;DHT22;13991;51.174;4.438;2023-01-28T05:46:43;5.50;99.90
26081;DHT22;13991;51.174;4.438;2023-01-28T05:49:12;5.40;99.90
26081;DHT22;13991;51.174;4.438;2023-01-28T05:51:41;5.40;99.90
26081;DHT22;13991;51.174;4.438;2023-01-28T05:54:08;5.40;99.90
26081;DHT22;13991;51.174;4.438;2023-01-28T05:56:37;5.40;99.90
26081;DHT22;13991;51.174;4.438;2023-01-28T05:59:03;5.40;99.90
26081;DHT22;13991;51.174;4.438;2023-01-28T06:01:30;5.50;99.90
26081;DHT22;13991;51.174;4.438;2023-01-28T06:03:57;5.50;99.90
26081;DHT22;13991;51.174;4.438;2023-01-28T06:06:24;5.40;99.90
26081;DHT22;13991;51.174;4.438;2023-01-28T06:08:50;5.20;99.90
26081;DHT22;13991;51.174;4.438;2023-01-28T06:11:16;5.30;99.90
26081;DHT22;13991;51.174;4.438;2023-01-28T06:13:42;5.20;99.90
26081;DHT22;13991;51.174;4.438;2023-01-28T06:16:09;5.30;99.90
26081;DHT22;13991;51.174;4.438;2023-01-28T06:18:35;5.20;99.90
26081;DHT22;13991;51.174;4.438;2023-01-28T06:21:02;5.00;99.90
26081;DHT22;13991;51.174;4.438;2023-01-28T06:23:28;4.90;99.90
26081;DHT22;13991;51.174;4.438;2023-01-28T06:25:55;5.10;99.90
26081;DHT22;13991;51.174;4.438;2023-01-28T06:28:22;5.10;99.90
26081;DHT22;13991;51.174;4.438;2023-01-28T06:30:49;5.10;99.90
26081;DHT22;13991;51.174;4.438;2023-01-28T06:33:17;5.00;99.90
26081;DHT22;13991;51.174;4.438;2023-01-28T06:35:47;5.10;99.90
26081;DHT22;13991;51.174;4.438;2023-01-28T06:38:16;5.20;99.90
26081;DHT22;13991;51.174;4.438;2023-01-28T06:40:42;5.10;99.90
26081;DHT22;13991;51.174;4.438;2023-01-28T06:43:09;5.10;99.90
26081;DHT22;13991;51.174;4.438;2023-01-28T06:45:38;5.00;99.90
26081;DHT22;13991;51.174;4.438;2023-01-28T06:48:04;5.00;99.90
26081;DHT22;13991;51.174;4.438;2023-01-28T06:50:31;4.90;99.90
26081;DHT22;13991;51.174;4.438;2023-01-28T06:52:57;4.90;99.90
26081;DHT22;13991;51.174;4.438;2023-01-28T06:55:24;5.00;99.90
26081;DHT22;13991;51.174;4.438;2023-01-28T06:57:52;4.90;99.90
26081;DHT22;13991;51.174;4.438;2023-01-28T07:00:19;4.70;99.90
26081;DHT22;13991;51.174;4.438;2023-01-28T07:02:46;4.70;99.90
26081;DHT22;13991;51.174;4.438;2023-01-28T07:05:14;4.70;99.90
26081;DHT22;13991;51.174;4.438;2023-01-28T07:07:41;4.70;99.90
26081;DHT22;13991;51.174;4.438;2023-01-28T07:10:09;4.70;99.90
26081;DHT22;13991;51.174;4.438;2023-01-28T07:12:36;4.60;99.90
26081;DHT22;13991;51.174;4.438;2023-01-28T07:15:06;4.60;99.90
26081;DHT22;13991;51.174;4.438;2023-01-28T07:17:33;4.40;99.90
26081;DHT22;13991;51.174;4.438;2023-01-28T07:20:02;4.50;99.90
26081;DHT22;13991;51.174;4.438;2023-01-28T07:22:30;4.50;99.90
26081;DHT22;13991;51.174;4.438;2023-01-28T07:24:57;4.60;99.90
26081;DHT22;13991;51.174;4.438;2023-01-28T07:27:25;4.60;99.90
26081;DHT22;13991;51.174;4.438;2023-01-28T07:29:52;4.60;99.90
26081;DHT22;13991;51.174;4.438;2023-01-28T07:32:20;4.70;99.90
26081;DHT22;13991;51.174;4.438;2023-01-28T07:34:47;4.70;99.90
26081;DHT22;13991;51.174;4.438;2023-01-28T07:37:14;4.50;99.90
26081;DHT22;13991;51.174;4.438;2023-01-28T07:39:42;4.50;99.90
26081;DHT22;13991;51.174;4.438;2023-01-28T07:42:13;4.40;99.90
26081;DHT22;13991;51.174;4.438;2023-01-28T07:44:40;4.50;99.90
26081;DHT22;13991;51.174;4.438;2023-01-28T07:47:09;4.60;99.90
26081;DHT22;13991;51.174;4.438;2023-01-28T07:49:37;4.50;99.90
26081;DHT22;13991;51.174;4.438;2023-01-28T07:52:06;4.50;99.90
26081;DHT22;13991;51.174;4.438;2023-01-28T07:54:33;4.50;99.90
26081;DHT22;13991;51.174;4.438;2023-01-28T07:57:00;4.40;99.90
26081;DHT22;13991;51.174;4.438;2023-01-28T07:59:28;4.50;99.90
26081;DHT22;13991;51.174;4.438;2023-01-28T08:01:55;4.50;99.90
26081;DHT22;13991;51.174;4.438;2023-01-28T08:04:22;4.90;99.90
26081;DHT22;13991;51.174;4.438;2023-01-28T08:06:49;4.80;99.90
26081;DHT22;13991;51.174;4.438;2023-01-28T08:09:18;4.70;99.90
26081;DHT22;13991;51.174;4.438;2023-01-28T08:11:45;4.70;99.90
26081;DHT22;13991;51.174;4.438;2023-01-28T08:14:13;4.70;99.90
26081;DHT22;13991;51.174;4.438;2023-01-28T08:16:41;4.70;99.90
26081;DHT22;13991;51.174;4.438;2023-01-28T08:19:07;4.70;99.90
26081;DHT22;13991;51.174;4.438;2023-01-28T08:21:33;4.80;99.90
26081;DHT22;13991;51.174;4.438;2023-01-28T08:23:58;4.80;99.90
26081;DHT22;13991;51.174;4.438;2023-01-28T08:26:24;4.70;99.90
26081;DHT22;13991;51.174;4.438;2023-01-28T08:28:50;4.50;99.90
26081;DHT22;13991;51.174;4.438;2023-01-28T08:31:15;4.50;99.90
26081;DHT22;13991;51.174;4.438;2023-01-28T08:33:41;4.60;99.90
26081;DHT22;13991;51.174;4.438;2023-01-28T08:36:07;4.50;99.90
26081;DHT22;13991;51.174;4.438;2023-01-28T08:38:33;4.60;99.90
26081;DHT22;13991;51.174;4.438;2023-01-28T08:40:58;4.50;99.90
26081;DHT22;13991;51.174;4.438;2023-01-28T08:43:24;4.60;99.90
26081;DHT22;13991;51.174;4.438;2023-01-28T08:45:50;4.70;99.90
26081;DHT22;13991;51.174;4.438;2023-01-28T08:48:19;4.60;99.90
26081;DHT22;13991;51.174;4.438;2023-01-28T08:50:45;4.60;99.90
26081;DHT22;13991;51.174;4.438;2023-01-28T08:53:16;4.70;99.90
26081;DHT22;13991;51.174;4.438;2023-01-28T08:55:42;4.70;99.90
26081;DHT22;13991;51.174;4.438;2023-01-28T08:58:14;4.80;99.90
26081;DHT22;13991;51.174;4.438;2023-01-28T09:00:41;4.60;99.90
26081;DHT22;13991;51.174;4.438;2023-01-28T09:03:07;4.60;99.90
26081;DHT22;13991;51.174;4.438;2023-01-28T09:05:34;4.50;99.90
26081;DHT22;13991;51.174;4.438;2023-01-28T09:08:04;4.60;99.90
26081;DHT22;13991;51.174;4.438;2023-01-28T09:10:30;4.80;99.90
26081;DHT22;13991;51.174;4.438;2023-01-28T09:12:55;5.00;99.90
26081;DHT22;13991;51.174;4.438;2023-01-28T09:15:21;4.90;99.90
26081;DHT22;13991;51.174;4.438;2023-01-28T09:17:47;5.00;99.90
26081;DHT22;13991;51.174;4.438;2023-01-28T09:20:13;5.10;99.90
26081;DHT22;13991;51.174;4.438;2023-01-28T09:22:39;5.00;99.90
26081;DHT22;13991;51.174;4.438;2023-01-28T09:25:05;5.00;99.90
26081;DHT22;13991;51.174;4.438;2023-01-28T09:27:32;5.00;99.90
26081;DHT22;13991;51.174;4.438;2023-01-28T09:29:57;5.10;99.90
26081;DHT22;13991;51.174;4.438;2023-01-28T09:32:23;5.20;99.90
26081;DHT22;13991;51.174;4.438;2023-01-28T09:34:49;5.20;99.90
26081;DHT22;13991;51.174;4.438;2023-01-28T09:37:15;5.20;99.90
26081;DHT22;13991;51.174;4.438;2023-01-28T09:39:42;5.20;99.90
26081;DHT22;13991;51.174;4.438;2023-01-28T09:45:28;5.30;99.90
26081;DHT22;13991;51.174;4.438;2023-01-28T09:47:58;5.30;99.90
26081;DHT22;13991;51.174;4.438;2023-01-28T09:50:37;5.40;99.90
26081;DHT22;13991;51.174;4.438;2023-01-28T09:53:22;5.30;99.90
26081;DHT22;13991;51.174;4.438;2023-01-28T09:56:05;5.20;99.90
26081;DHT22;13991;51.174;4.438;2023-01-28T09:58:34;5.30;99.90
26081;DHT22;13991;51.174;4.438;2023-01-28T10:03:54;5.10;99.90
26081;DHT22;13991;51.174;4.438;2023-01-28T10:14:47;5.50;99.90
26081;DHT22;13991;51.174;4.438;2023-01-28T10:17:38;5.50;99.90
26081;DHT22;13991;51.174;4.438;2023-01-28T10:20:14;5.50;99.90
26081;DHT22;13991;51.174;4.438;2023-01-28T10:22:58;5.40;99.90
26081;DHT22;13991;51.174;4.438;2023-01-28T10:25:29;5.30;99.90
26081;DHT22;13991;51.174;4.438;2023-01-28T10:27:55;5.20;99.90
26081;DHT22;13991;51.174;4.438;2023-01-28T10:30:26;5.40;99.90
26081;DHT22;13991;51.174;4.438;2023-01-28T10:33:02;5.50;99.90
26081;DHT22;13991;51.174;4.438;2023-01-28T10:35:38;5.60;99.90
26081;DHT22;13991;51.174;4.438;2023-01-28T10:38:06;5.70;99.90
26081;DHT22;13991;51.174;4.438;2023-01-28T10:40:33;5.70;99.90
26081;DHT22;13991;51.174;4.438;2023-01-28T10:43:00;5.60;99.90
26081;DHT22;13991;51.174;4.438;2023-01-28T10:47:59;5.60;99.90
26081;DHT22;13991;51.174;4.438;2023-01-28T10:50:30;5.60;99.90
26081;DHT22;13991;51.174;4.438;2023-01-28T10:52:57;5.70;99.90
26081;DHT22;13991;51.174;4.438;2023-01-28T10:55:27;5.80;99.90
26081;DHT22;13991;51.174;4.438;2023-01-28T10:57:53;5.90;99.90
26081;DHT22;13991;51.174;4.438;2023-01-28T11:02:47;5.70;99.90
26081;DHT22;13991;51.174;4.438;2023-01-28T11:05:25;5.80;99.90
26081;DHT22;13991;51.174;4.438;2023-01-28T11:08:05;5.70;99.90
26081;DHT22;13991;51.174;4.438;2023-01-28T11:10:37;5.80;99.90
26081;DHT22;13991;51.174;4.438;2023-01-28T11:13:13;5.80;99.90
26081;DHT22;13991;51.174;4.438;2023-01-28T11:18:27;5.80;99.90
26081;DHT22;13991;51.174;4.438;2023-01-28T11:20:59;5.70;99.90
26081;DHT22;13991;51.174;4.438;2023-01-28T11:23:40;5.70;99.90
26081;DHT22;13991;51.174;4.438;2023-01-28T11:26:25;5.60;99.90
26081;DHT22;13991;51.174;4.438;2023-01-28T11:28:52;5.70;99.90
26081;DHT22;13991;51.174;4.438;2023-01-28T11:31:19;5.80;99.90
26081;DHT22;13991;51.174;4.438;2023-01-28T11:33:54;5.90;99.90
26081;DHT22;13991;51.174;4.438;2023-01-28T11:36:29;6.10;99.90
26081;DHT22;13991;51.174;4.438;2023-01-28T11:39:13;6.10;99.90
26081;DHT22;13991;51.174;4.438;2023-01-28T11:41:40;5.90;99.90
26081;DHT22;13991;51.174;4.438;2023-01-28T11:44:25;6.10;99.90
26081;DHT22;13991;51.174;4.438;2023-01-28T11:52:45;6.00;99.90
26081;DHT22;13991;51.174;4.438;2023-01-28T11:55:39;6.20;99.90
26081;DHT22;13991;51.174;4.438;2023-01-28T12:01:07;6.30;99.90
26081;DHT22;13991;51.174;4.438;2023-01-28T12:11:32;6.60;99.90
26081;DHT22;13991;51.174;4.438;2023-01-28T12:22:49;6.60;99.90
26081;DHT22;13991;51.174;4.438;2023-01-28T12:36:55;6.70;99.90
26081;DHT22;13991;51.174;4.438;2023-01-28T12:40:03;6.60;99.90
26081;DHT22;13991;51.174;4.438;2023-01-28T12:47:42;6.70;99.90
26081;DHT22;13991;51.174;4.438;2023-01-28T12:50:29;6.70;99.90
26081;DHT22;13991;51.174;4.438;2023-01-28T12:58:49;7.00;99.90
26081;DHT22;13991;51.174;4.438;2023-01-28T13:01:23;6.90;99.90
26081;DHT22;13991;51.174;4.438;2023-01-28T13:04:01;6.60;99.90
26081;DHT22;13991;51.174;4.438;2023-01-28T13:06:43;6.50;99.90
26081;DHT22;13991;51.174;4.438;2023-01-28T13:09:21;6.60;99.90
26081;DHT22;13991;51.174;4.438;2023-01-28T13:11:52;6.60;99.90
26081;DHT22;13991;51.174;4.438;2023-01-28T13:14:23;6.80;99.90
26081;DHT22;13991;51.174;4.438;2023-01-28T13:16:50;6.80;99.90
26081;DHT22;13991;51.174;4.438;2023-01-28T13:21:45;6.70;99.90
26081;DHT22;13991;51.174;4.438;2023-01-28T13:26:49;6.50;99.90
26081;DHT22;13991;51.174;4.438;2023-01-28T13:31:52;6.90;99.90
26081;DHT22;13991;51.174;4.438;2023-01-28T13:34:55;6.80;99.90
26081;DHT22;13991;51.174;4.438;2023-01-28T13:40:25;6.90;99.90
26081;DHT22;13991;51.174;4.438;2023-01-28T13:46:01;6.90;99.90
26081;DHT22;13991;51.174;4.438;2023-01-28T13:48:40;6.80;99.90
26081;DHT22;13991;51.174;4.438;2023-01-28T13:51:23;6.70;99.90
26081;DHT22;13991;51.174;4.438;2023-01-28T13:54:02;6.70;99.90
26081;DHT22;13991;51.174;4.438;2023-01-28T14:00:12;6.60;99.90
26081;DHT22;13991;51.174;4.438;2023-01-28T14:13:47;6.60;99.90
26081;DHT22;13991;51.174;4.438;2023-01-28T14:19:01;6.30;99.90
26081;DHT22;13991;51.174;4.438;2023-01-28T14:21:31;6.40;99.90
26081;DHT22;13991;51.174;4.438;2023-01-28T14:23:57;6.30;99.90
26081;DHT22;13991;51.174;4.438;2023-01-28T14:26:30;6.40;99.90
26081;DHT22;13991;51.174;4.438;2023-01-28T14:31:57;6.20;99.90
26081;DHT22;13991;51.174;4.438;2023-01-28T14:34:31;6.20;99.90
26081;DHT22;13991;51.174;4.438;2023-01-28T14:37:01;6.20;99.90
26081;DHT22;13991;51.174;4.438;2023-01-28T14:39:31;6.10;99.90
26081;DHT22;13991;51.174;4.438;2023-01-28T14:42:02;6.00;99.90
26081;DHT22;13991;51.174;4.438;2023-01-28T14:44:39;6.20;99.90
26081;DHT22;13991;51.174;4.438;2023-01-28T14:50:09;6.50;99.90
26081;DHT22;13991;51.174;4.438;2023-01-28T14:58:47;6.30;99.90
26081;DHT22;13991;51.174;4.438;2023-01-28T15:01:25;6.40;99.90
26081;DHT22;13991;51.174;4.438;2023-01-28T15:03:51;6.40;99.90
26081;DHT22;13991;51.174;4.438;2023-01-28T15:06:21;6.50;99.90
26081;DHT22;13991;51.174;4.438;2023-01-28T15:08:49;6.50;99.90
26081;DHT22;13991;51.174;4.438;2023-01-28T15:11:22;6.50;99.90
26081;DHT22;13991;51.174;4.438;2023-01-28T15:13:54;6.60;99.90
26081;DHT22;13991;51.174;4.438;2023-01-28T15:16:26;6.40;99.90
26081;DHT22;13991;51.174;4.438;2023-01-28T15:18:55;6.40;99.90
26081;DHT22;13991;51.174;4.438;2023-01-28T15:21:23;6.20;99.90
26081;DHT22;13991;51.174;4.438;2023-01-28T15:23:55;6.20;99.90
26081;DHT22;13991;51.174;4.438;2023-01-28T15:26:30;6.30;99.90
26081;DHT22;13991;51.174;4.438;2023-01-28T15:28:56;6.40;99.90
26081;DHT22;13991;51.174;4.438;2023-01-28T15:31:26;6.30;99.90
26081;DHT22;13991;51.174;4.438;2023-01-28T15:33:58;6.30;99.90
26081;DHT22;13991;51.174;4.438;2023-01-28T15:36:24;6.20;99.90
26081;DHT22;13991;51.174;4.438;2023-01-28T15:38:52;6.20;99.90
26081;DHT22;13991;51.174;4.438;2023-01-28T15:41:19;6.20;99.90
26081;DHT22;13991;51.174;4.438;2023-01-28T15:43:47;6.10;99.90
26081;DHT22;13991;51.174;4.438;2023-01-28T15:46:13;6.00;99.90
26081;DHT22;13991;51.174;4.438;2023-01-28T15:48:45;5.90;99.90
26081;DHT22;13991;51.174;4.438;2023-01-28T15:51:19;6.00;99.90
26081;DHT22;13991;51.174;4.438;2023-01-28T15:53:49;6.00;99.90
26081;DHT22;13991;51.174;4.438;2023-01-28T15:56:26;5.90;99.90
26081;DHT22;13991;51.174;4.438;2023-01-28T15:58:52;5.70;99.90
26081;DHT22;13991;51.174;4.438;2023-01-28T16:01:19;5.60;99.90
26081;DHT22;13991;51.174;4.438;2023-01-28T16:03:58;5.70;99.90
26081;DHT22;13991;51.174;4.438;2023-01-28T16:06:36;5.70;99.90
26081;DHT22;13991;51.174;4.438;2023-01-28T16:09:30;5.60;99.90
26081;DHT22;13991;51.174;4.438;2023-01-28T16:12:04;5.80;99.90
26081;DHT22;13991;51.174;4.438;2023-01-28T16:14:56;5.90;99.90
26081;DHT22;13991;51.174;4.438;2023-01-28T16:17:34;5.70;99.90
26081;DHT22;13991;51.174;4.438;2023-01-28T16:20:05;5.80;99.90
26081;DHT22;13991;51.174;4.438;2023-01-28T16:22:37;5.90;99.90
26081;DHT22;13991;51.174;4.438;2023-01-28T16:25:25;5.70;99.90
26081;DHT22;13991;51.174;4.438;2023-01-28T16:27:51;5.60;99.90
26081;DHT22;13991;51.174;4.438;2023-01-28T16:30:17;5.40;99.90
26081;DHT22;13991;51.174;4.438;2023-01-28T16:32:43;5.40;99.90
26081;DHT22;13991;51.174;4.438;2023-01-28T16:35:21;5.30;99.90
26081;DHT22;13991;51.174;4.438;2023-01-28T16:37:48;5.10;99.90
26081;DHT22;13991;51.174;4.438;2023-01-28T16:40:16;5.00;99.90
26081;DHT22;13991;51.174;4.438;2023-01-28T16:42:43;4.90;99.90
26081;DHT22;13991;51.174;4.438;2023-01-28T16:45:23;4.90;99.90
26081;DHT22;13991;51.174;4.438;2023-01-28T16:47:49;4.90;99.90
26081;DHT22;13991;51.174;4.438;2023-01-28T16:50:16;4.80;99.90
26081;DHT22;13991;51.174;4.438;2023-01-28T16:52:43;4.80;99.90
26081;DHT22;13991;51.174;4.438;2023-01-28T16:55:14;4.70;99.90
26081;DHT22;13991;51.174;4.438;2023-01-28T16:57:41;4.70;99.90
26081;DHT22;13991;51.174;4.438;2023-01-28T17:00:14;4.70;99.90
26081;DHT22;13991;51.174;4.438;2023-01-28T17:02:41;4.70;99.90
26081;DHT22;13991;51.174;4.438;2023-01-28T17:05:07;4.60;99.90
26081;DHT22;13991;51.174;4.438;2023-01-28T17:07:36;4.60;99.90
26081;DHT22;13991;51.174;4.438;2023-01-28T17:10:02;4.50;99.90
26081;DHT22;13991;51.174;4.438;2023-01-28T17:12:27;4.50;99.90
26081;DHT22;13991;51.174;4.438;2023-01-28T17:14:53;4.60;99.90
26081;DHT22;13991;51.174;4.438;2023-01-28T17:17:19;4.60;99.90
26081;DHT22;13991;51.174;4.438;2023-01-28T17:19:44;4.60;99.90
26081;DHT22;13991;51.174;4.438;2023-01-28T17:22:10;4.80;99.90
26081;DHT22;13991;51.174;4.438;2023-01-28T17:24:36;4.90;99.90
26081;DHT22;13991;51.174;4.438;2023-01-28T17:27:02;4.80;99.90
26081;DHT22;13991;51.174;4.438;2023-01-28T17:29:28;4.80;99.90
26081;DHT22;13991;51.174;4.438;2023-01-28T17:31:53;4.90;99.90
26081;DHT22;13991;51.174;4.438;2023-01-28T17:34:19;4.90;99.90
26081;DHT22;13991;51.174;4.438;2023-01-28T17:36:45;4.90;99.90
26081;DHT22;13991;51.174;4.438;2023-01-28T17:39:10;4.90;99.90
26081;DHT22;13991;51.174;4.438;2023-01-28T17:41:36;4.90;99.90
26081;DHT22;13991;51.174;4.438;2023-01-28T17:44:02;5.00;99.90
26081;DHT22;13991;51.174;4.438;2023-01-28T17:46:29;4.90;99.90
26081;DHT22;13991;51.174;4.438;2023-01-28T17:48:54;4.90;99.90
26081;DHT22;13991;51.174;4.438;2023-01-28T17:51:20;4.80;99.90
26081;DHT22;13991;51.174;4.438;2023-01-28T17:53:51;4.90;99.90
26081;DHT22;13991;51.174;4.438;2023-01-28T17:56:22;4.80;99.90
26081;DHT22;13991;51.174;4.438;2023-01-28T17:58:53;4.70;99.90
26081;DHT22;13991;51.174;4.438;2023-01-28T18:01:20;4.80;99.90
26081;DHT22;13991;51.174;4.438;2023-01-28T18:03:46;4.70;99.90
26081;DHT22;13991;51.174;4.438;2023-01-28T18:06:12;4.80;99.90
26081;DHT22;13991;51.174;4.438;2023-01-28T18:08:37;4.80;99.90
26081;DHT22;13991;51.174;4.438;2023-01-28T18:11:06;4.80;99.90
26081;DHT22;13991;51.174;4.438;2023-01-28T18:13:35;4.80;99.90
26081;DHT22;13991;51.174;4.438;2023-01-28T18:16:02;4.80;99.90
26081;DHT22;13991;51.174;4.438;2023-01-28T18:18:28;4.70;99.90
26081;DHT22;13991;51.174;4.438;2023-01-28T18:21:04;4.60;99.90